sensor_id;sensor_type;location;lat;lon;timestamp;temperature;humidity
52275;DHT22;38228;50.940;4.024;2023-01-26T09:13:18;3.60;99.90
52275;DHT22;38228;50.940;4.024;2023-01-26T09:15:44;3.40;99.90
52275;DHT22;38228;50.940;4.024;2023-01-26T09:18:10;3.90;99.90
52275;DHT22;38228;50.940;4.024;2023-01-26T09:20:38;3.90;99.90
52275;DHT22;38228;50.940;4.024;2023-01-26T09:23:04;3.90;99.90
52275;DHT22;38228;50.940;4.024;2023-01-26T09:25:30;3.90;99.90
52275;DHT22;38228;50.940;4.024;2023-01-26T09:27:55;3.70;99.90
52275;DHT22;38228;50.940;4.024;2023-01-26T09:30:21;3.70;99.90
52275;DHT22;38228;50.940;4.024;2023-01-26T09:32:49;3.80;99.90
52275;DHT22;38228;50.940;4.024;2023-01-26T09:35:15;3.90;99.90
52275;DHT22;38228;50.940;4.024;2023-01-26T09:37:43;3.70;99.90
52275;DHT22;38228;50.940;4.024;2023-01-26T09:40:15;3.80;99.90
52275;DHT22;38228;50.940;4.024;2023-01-26T09:42:43;3.70;99.90
52275;DHT22;38228;50.940;4.024;2023-01-26T09:50:11;4.00;99.90
52275;DHT22;38228;50.940;4.024;2023-01-26T09:52:42;4.10;99.90
52275;DHT22;38228;50.940;4.024;2023-01-26T09:55:16;4.30;99.90
52275;DHT22;38228;50.940;4.024;2023-01-26T09:57:46;4.60;99.90
52275;DHT22;38228;50.940;4.024;2023-01-26T10:00:18;4.70;99.90
52275;DHT22;38228;50.940;4.024;2023-01-26T10:08:02;4.80;99.90
52275;DHT22;38228;50.940;4.024;2023-01-26T10:10:31;4.70;99.90
52275;DHT22;38228;50.940;4.024;2023-01-26T10:12:59;4.60;99.90
52275;DHT22;38228;50.940;4.024;2023-01-26T10:15:29;4.60;99.90
52275;DHT22;38228;50.940;4.024;2023-01-26T10:17:57;4.80;99.90
52275;DHT22;38228;50.940;4.024;2023-01-26T10:22:54;5.00;99.90
52275;DHT22;38228;50.940;4.024;2023-01-26T10:25:26;5.00;99.90
52275;DHT22;38228;50.940;4.024;2023-01-26T10:27:53;5.10;99.90
52275;DHT22;38228;50.940;4.024;2023-01-26T10:30:19;5.50;99.90
52275;DHT22;38228;50.940;4.024;2023-01-26T10:32:46;5.50;99.90
52275;DHT22;38228;50.940;4.024;2023-01-26T10:35:15;5.50;99.90
52275;DHT22;38228;50.940;4.024;2023-01-26T10:37:41;5.50;99.90
52275;DHT22;38228;50.940;4.024;2023-01-26T10:40:07;5.70;99.90
52275;DHT22;38228;50.940;4.024;2023-01-26T10:42:34;5.90;99.90
52275;DHT22;38228;50.940;4.024;2023-01-26T10:45:01;5.80;99.90
52275;DHT22;38228;50.940;4.024;2023-01-26T10:47:27;5.80;99.90
52275;DHT22;38228;50.940;4.024;2023-01-26T10:52:37;6.10;99.90
52275;DHT22;38228;50.940;4.024;2023-01-26T10:55:10;6.30;99.90
52275;DHT22;38228;50.940;4.024;2023-01-26T10:57:37;6.40;99.90
52275;DHT22;38228;50.940;4.024;2023-01-26T11:00:04;6.50;99.90
52275;DHT22;38228;50.940;4.024;2023-01-26T11:02:33;6.50;99.90
52275;DHT22;38228;50.940;4.024;2023-01-26T11:10:18;6.70;99.90
52275;DHT22;38228;50.940;4.024;2023-01-26T11:12:44;6.70;99.90
52275;DHT22;38228;50.940;4.024;2023-01-26T11:15:22;6.80;99.90
52275;DHT22;38228;50.940;4.024;2023-01-26T11:17:57;6.90;99.90
52275;DHT22;38228;50.940;4.024;2023-01-26T11:20:42;7.10;99.90
52275;DHT22;38228;50.940;4.024;2023-01-26T11:30:47;7.20;99.90
52275;DHT22;38228;50.940;4.024;2023-01-26T11:33:23;7.20;99.90
52275;DHT22;38228;50.940;4.024;2023-01-26T11:35:53;7.10;99.90
52275;DHT22;38228;50.940;4.024;2023-01-26T11:40:59;7.10;99.90
52275;DHT22;38228;50.940;4.024;2023-01-26T11:43:36;6.90;99.90
52275;DHT22;38228;50.940;4.024;2023-01-26T11:46:10;6.80;99.90
52275;DHT22;38228;50.940;4.024;2023-01-26T11:59:25;7.00;99.90
52275;DHT22;38228;50.940;4.024;2023-01-26T12:02:00;7.10;99.90
52275;DHT22;38228;50.940;4.024;2023-01-26T12:04:26;7.10;99.90
52275;DHT22;38228;50.940;4.024;2023-01-26T12:06:57;7.10;99.90
52275;DHT22;38228;50.940;4.024;2023-01-26T12:12:02;7.20;99.90
52275;DHT22;38228;50.940;4.024;2023-01-26T12:17:12;7.30;99.90
52275;DHT22;38228;50.940;4.024;2023-01-26T12:22:13;7.40;99.90
52275;DHT22;38228;50.940;4.024;2023-01-26T12:24:51;7.60;99.90
52275;DHT22;38228;50.940;4.024;2023-01-26T12:27:22;7.50;99.90
52275;DHT22;38228;50.940;4.024;2023-01-26T12:29:51;7.50;99.90
52275;DHT22;38228;50.940;4.024;2023-01-26T12:32:17;7.60;99.90
52275;DHT22;38228;50.940;4.024;2023-01-26T12:34:43;7.60;99.90
52275;DHT22;38228;50.940;4.024;2023-01-26T12:39:47;7.70;99.90
52275;DHT22;38228;50.940;4.024;2023-01-26T12:42:27;7.80;99.90
52275;DHT22;38228;50.940;4.024;2023-01-26T12:44:55;7.90;99.90
52275;DHT22;38228;50.940;4.024;2023-01-26T12:47:27;7.90;99.90
52275;DHT22;38228;50.940;4.024;2023-01-26T12:57:43;8.00;99.90
52275;DHT22;38228;50.940;4.024;2023-01-26T13:00:21;8.00;99.90
52275;DHT22;38228;50.940;4.024;2023-01-26T13:02:48;7.80;99.90
52275;DHT22;38228;50.940;4.024;2023-01-26T13:10:54;7.80;99.90
52275;DHT22;38228;50.940;4.024;2023-01-26T13:15:45;7.70;99.90
52275;DHT22;38228;50.940;4.024;2023-01-26T13:18:16;7.60;99.90
52275;DHT22;38228;50.940;4.024;2023-01-26T13:20:43;7.60;99.90
52275;DHT22;38228;50.940;4.024;2023-01-26T13:28:37;7.70;99.90
52275;DHT22;38228;50.940;4.024;2023-01-26T13:31:04;7.70;99.90
52275;DHT22;38228;50.940;4.024;2023-01-26T13:33:30;7.80;99.90
52275;DHT22;38228;50.940;4.024;2023-01-26T13:35:55;7.90;99.90
52275;DHT22;38228;50.940;4.024;2023-01-26T13:38:25;7.80;99.90
52275;DHT22;38228;50.940;4.024;2023-01-26T13:40:52;7.90;99.90
52275;DHT22;38228;50.940;4.024;2023-01-26T13:48:40;7.90;99.90
52275;DHT22;38228;50.940;4.024;2023-01-26T13:51:09;7.90;99.90
52275;DHT22;38228;50.940;4.024;2023-01-26T13:56:06;7.90;99.90
52275;DHT22;38228;50.940;4.024;2023-01-26T13:58:32;7.90;99.90
52275;DHT22;38228;50.940;4.024;2023-01-26T14:01:02;7.80;99.90
52275;DHT22;38228;50.940;4.024;2023-01-26T14:03:28;7.80;99.90
52275;DHT22;38228;50.940;4.024;2023-01-26T14:05:59;7.80;99.90
52275;DHT22;38228;50.940;4.024;2023-01-26T14:08:26;7.80;99.90
52275;DHT22;38228;50.940;4.024;2023-01-26T14:10:51;7.80;99.90
52275;DHT22;38228;50.940;4.024;2023-01-26T14:13:19;7.90;99.90
52275;DHT22;38228;50.940;4.024;2023-01-26T14:15:53;7.90;99.90
52275;DHT22;38228;50.940;4.024;2023-01-26T14:18:19;8.00;99.90
52275;DHT22;38228;50.940;4.024;2023-01-26T14:20:46;8.10;99.90
52275;DHT22;38228;50.940;4.024;2023-01-26T14:28:26;8.10;99.90
52275;DHT22;38228;50.940;4.024;2023-01-26T14:30:58;8.10;99.90
52275;DHT22;38228;50.940;4.024;2023-01-26T14:33:25;8.20;99.90
52275;DHT22;38228;50.940;4.024;2023-01-26T14:35:56;8.30;99.90
52275;DHT22;38228;50.940;4.024;2023-01-26T14:38:22;8.30;99.90
52275;DHT22;38228;50.940;4.024;2023-01-26T14:40:51;8.20;99.90
52275;DHT22;38228;50.940;4.024;2023-01-26T14:43:18;8.10;99.90
52275;DHT22;38228;50.940;4.024;2023-01-26T14:46:06;8.10;99.90
52275;DHT22;38228;50.940;4.024;2023-01-26T14:48:37;8.00;99.90
52275;DHT22;38228;50.940;4.024;2023-01-26T14:51:04;8.00;99.90
52275;DHT22;38228;50.940;4.024;2023-01-26T14:53:31;8.00;99.90
52275;DHT22;38228;50.940;4.024;2023-01-26T14:55:57;8.00;99.90
52275;DHT22;38228;50.940;4.024;2023-01-26T14:58:29;8.00;99.90
52275;DHT22;38228;50.940;4.024;2023-01-26T15:00:56;8.10;99.90
52275;DHT22;38228;50.940;4.024;2023-01-26T15:03:25;8.10;99.90
52275;DHT22;38228;50.940;4.024;2023-01-26T15:11:26;8.20;99.90
52275;DHT22;38228;50.940;4.024;2023-01-26T15:16:51;8.20;99.90
52275;DHT22;38228;50.940;4.024;2023-01-26T15:19:24;8.20;99.90
52275;DHT22;38228;50.940;4.024;2023-01-26T15:21:50;8.30;99.90
52275;DHT22;38228;50.940;4.024;2023-01-26T15:24:16;8.50;99.90
52275;DHT22;38228;50.940;4.024;2023-01-26T15:26:42;8.10;99.90
52275;DHT22;38228;50.940;4.024;2023-01-26T15:29:19;7.90;99.90
52275;DHT22;38228;50.940;4.024;2023-01-26T15:31:49;7.80;99.90
52275;DHT22;38228;50.940;4.024;2023-01-26T15:36:53;7.80;99.90
52275;DHT22;38228;50.940;4.024;2023-01-26T15:39:19;7.80;99.90
52275;DHT22;38228;50.940;4.024;2023-01-26T15:41:58;7.60;99.90
52275;DHT22;38228;50.940;4.024;2023-01-26T15:44:25;7.60;99.90
52275;DHT22;38228;50.940;4.024;2023-01-26T15:46:51;7.50;99.90
52275;DHT22;38228;50.940;4.024;2023-01-26T15:49:17;7.50;99.90
52275;DHT22;38228;50.940;4.024;2023-01-26T15:51:44;7.40;99.90
52275;DHT22;38228;50.940;4.024;2023-01-26T15:54:10;7.40;99.90
52275;DHT22;38228;50.940;4.024;2023-01-26T15:56:35;7.50;99.90
52275;DHT22;38228;50.940;4.024;2023-01-26T15:59:01;7.50;99.90
52275;DHT22;38228;50.940;4.024;2023-01-26T16:01:26;7.40;99.90
52275;DHT22;38228;50.940;4.024;2023-01-26T16:03:52;7.40;99.90
52275;DHT22;38228;50.940;4.024;2023-01-26T16:06:22;7.40;99.90
52275;DHT22;38228;50.940;4.024;2023-01-26T16:08:48;7.40;99.90
52275;DHT22;38228;50.940;4.024;2023-01-26T16:11:13;7.30;99.90
52275;DHT22;38228;50.940;4.024;2023-01-26T16:13:39;7.10;99.90
52275;DHT22;38228;50.940;4.024;2023-01-26T16:16:07;7.20;99.90
52275;DHT22;38228;50.940;4.024;2023-01-26T16:18:33;7.20;99.90
52275;DHT22;38228;50.940;4.024;2023-01-26T16:20:59;7.20;99.90
52275;DHT22;38228;50.940;4.024;2023-01-26T16:23:25;7.20;99.90
52275;DHT22;38228;50.940;4.024;2023-01-26T16:25:52;7.20;99.90
52275;DHT22;38228;50.940;4.024;2023-01-26T16:28:18;7.40;99.90
52275;DHT22;38228;50.940;4.024;2023-01-26T16:30:45;7.40;99.90
52275;DHT22;38228;50.940;4.024;2023-01-26T16:33:11;7.40;99.90
52275;DHT22;38228;50.940;4.024;2023-01-26T16:35:37;7.30;99.90
52275;DHT22;38228;50.940;4.024;2023-01-26T16:38:02;7.20;99.90
52275;DHT22;38228;50.940;4.024;2023-01-26T16:40:29;7.30;99.90
52275;DHT22;38228;50.940;4.024;2023-01-26T16:42:55;7.20;99.90
52275;DHT22;38228;50.940;4.024;2023-01-26T16:45:22;7.40;99.90
52275;DHT22;38228;50.940;4.024;2023-01-26T16:47:48;7.40;99.90
52275;DHT22;38228;50.940;4.024;2023-01-26T16:50:14;7.20;99.90
52275;DHT22;38228;50.940;4.024;2023-01-26T16:52:40;7.10;99.90
52275;DHT22;38228;50.940;4.024;2023-01-26T16:55:06;7.10;99.90
52275;DHT22;38228;50.940;4.024;2023-01-26T16:57:37;7.00;99.90
52275;DHT22;38228;50.940;4.024;2023-01-26T17:00:03;7.10;99.90
52275;DHT22;38228;50.940;4.024;2023-01-26T17:02:30;7.10;99.90
52275;DHT22;38228;50.940;4.024;2023-01-26T17:04:57;7.00;99.90
52275;DHT22;38228;50.940;4.024;2023-01-26T17:07:22;7.10;99.90
52275;DHT22;38228;50.940;4.024;2023-01-26T17:09:48;7.00;99.90
52275;DHT22;38228;50.940;4.024;2023-01-26T17:12:13;7.10;99.90
52275;DHT22;38228;50.940;4.024;2023-01-26T17:14:39;7.00;99.90
52275;DHT22;38228;50.940;4.024;2023-01-26T17:17:04;7.00;99.90
52275;DHT22;38228;50.940;4.024;2023-01-26T17:19:30;6.90;99.90
52275;DHT22;38228;50.940;4.024;2023-01-26T17:21:55;6.80;99.90
52275;DHT22;38228;50.940;4.024;2023-01-26T17:24:22;7.00;99.90
52275;DHT22;38228;50.940;4.024;2023-01-26T17:26:47;7.00;99.90
52275;DHT22;38228;50.940;4.024;2023-01-26T17:29:13;6.90;99.90
52275;DHT22;38228;50.940;4.024;2023-01-26T17:31:38;7.00;99.90
52275;DHT22;38228;50.940;4.024;2023-01-26T17:34:04;6.90;99.90
52275;DHT22;38228;50.940;4.024;2023-01-26T17:36:30;6.80;99.90
52275;DHT22;38228;50.940;4.024;2023-01-26T17:38:55;6.90;99.90
52275;DHT22;38228;50.940;4.024;2023-01-26T17:41:21;7.00;99.90
52275;DHT22;38228;50.940;4.024;2023-01-26T17:43:46;7.00;99.90
52275;DHT22;38228;50.940;4.024;2023-01-26T17:46:19;6.90;99.90
52275;DHT22;38228;50.940;4.024;2023-01-26T17:48:45;6.90;99.90
52275;DHT22;38228;50.940;4.024;2023-01-26T17:51:12;6.90;99.90
52275;DHT22;38228;50.940;4.024;2023-01-26T17:53:38;7.00;99.90
52275;DHT22;38228;50.940;4.024;2023-01-26T17:56:05;7.00;99.90
52275;DHT22;38228;50.940;4.024;2023-01-26T17:58:30;6.90;99.90
52275;DHT22;38228;50.940;4.024;2023-01-26T18:00:56;6.90;99.90
52275;DHT22;38228;50.940;4.024;2023-01-26T18:03:21;6.90;99.90
52275;DHT22;38228;50.940;4.024;2023-01-26T18:05:54;6.80;99.90
52275;DHT22;38228;50.940;4.024;2023-01-26T18:08:21;6.80;99.90
52275;DHT22;38228;50.940;4.024;2023-01-26T18:10:47;6.80;99.90
52275;DHT22;38228;50.940;4.024;2023-01-26T18:13:12;6.80;99.90
52275;DHT22;38228;50.940;4.024;2023-01-26T18:15:38;6.80;99.90
52275;DHT22;38228;50.940;4.024;2023-01-26T18:18:04;6.80;99.90
52275;DHT22;38228;50.940;4.024;2023-01-26T18:20:31;6.80;99.90
52275;DHT22;38228;50.940;4.024;2023-01-26T18:22:56;6.80;99.90
52275;DHT22;38228;50.940;4.024;2023-01-26T18:25:22;6.70;99.90
52275;DHT22;38228;50.940;4.024;2023-01-26T18:27:47;6.80;99.90
52275;DHT22;38228;50.940;4.024;2023-01-26T18:30:13;6.80;99.90
52275;DHT22;38228;50.940;4.024;2023-01-26T18:32:39;6.80;99.90
52275;DHT22;38228;50.940;4.024;2023-01-26T18:35:05;6.70;99.90
52275;DHT22;38228;50.940;4.024;2023-01-26T18:37:30;6.70;99.90
52275;DHT22;38228;50.940;4.024;2023-01-26T18:39:58;6.70;99.90
52275;DHT22;38228;50.940;4.024;2023-01-26T18:42:24;6.70;99.90
52275;DHT22;38228;50.940;4.024;2023-01-26T18:44:50;6.70;99.90
52275;DHT22;38228;50.940;4.024;2023-01-26T18:47:15;6.70;99.90
52275;DHT22;38228;50.940;4.024;2023-01-26T18:49:41;6.70;99.90
52275;DHT22;38228;50.940;4.024;2023-01-26T18:52:06;6.70;99.90
52275;DHT22;38228;50.940;4.024;2023-01-26T18:54:32;6.80;99.90
52275;DHT22;38228;50.940;4.024;2023-01-26T18:56:58;6.90;99.90
52275;DHT22;38228;50.940;4.024;2023-01-26T18:59:23;6.90;99.90
52275;DHT22;38228;50.940;4.024;2023-01-26T19:01:49;6.90;99.90
52275;DHT22;38228;50.940;4.024;2023-01-26T19:04:15;6.90;99.90
52275;DHT22;38228;50.940;4.024;2023-01-26T19:06:40;6.90;99.90
52275;DHT22;38228;50.940;4.024;2023-01-26T19:09:06;6.80;99.90
52275;DHT22;38228;50.940;4.024;2023-01-26T19:11:33;6.80;99.90
52275;DHT22;38228;50.940;4.024;2023-01-26T19:13:59;6.70;99.90
52275;DHT22;38228;50.940;4.024;2023-01-26T19:16:25;6.80;99.90
52275;DHT22;38228;50.940;4.024;2023-01-26T19:18:51;6.90;99.90
52275;DHT22;38228;50.940;4.024;2023-01-26T19:21:18;6.80;99.90
52275;DHT22;38228;50.940;4.024;2023-01-26T19:23:49;6.90;99.90
52275;DHT22;38228;50.940;4.024;2023-01-26T19:26:16;6.80;99.90
52275;DHT22;38228;50.940;4.024;2023-01-26T19:28:42;6.80;99.90
52275;DHT22;38228;50.940;4.024;2023-01-26T19:31:08;6.80;99.90
52275;DHT22;38228;50.940;4.024;2023-01-26T19:33:34;6.70;99.90
52275;DHT22;38228;50.940;4.024;2023-01-26T19:36:00;6.80;99.90
52275;DHT22;38228;50.940;4.024;2023-01-26T19:38:26;6.90;99.90
52275;DHT22;38228;50.940;4.024;2023-01-26T19:40:52;6.80;99.90
52275;DHT22;38228;50.940;4.024;2023-01-26T19:43:17;6.90;99.90
52275;DHT22;38228;50.940;4.024;2023-01-26T19:45:47;6.80;99.90
52275;DHT22;38228;50.940;4.024;2023-01-26T19:48:14;6.70;99.90
52275;DHT22;38228;50.940;4.024;2023-01-26T19:50:39;6.70;99.90
52275;DHT22;38228;50.940;4.024;2023-01-26T19:53:05;6.80;99.90
52275;DHT22;38228;50.940;4.024;2023-01-26T19:55:31;6.70;99.90
52275;DHT22;38228;50.940;4.024;2023-01-26T19:57:56;6.80;99.90
52275;DHT22;38228;50.940;4.024;2023-01-26T20:00:22;6.80;99.90
52275;DHT22;38228;50.940;4.024;2023-01-26T20:02:47;6.70;99.90
52275;DHT22;38228;50.940;4.024;2023-01-26T20:05:13;6.70;99.90
52275;DHT22;38228;50.940;4.024;2023-01-26T20:07:39;6.70;99.90
52275;DHT22;38228;50.940;4.024;2023-01-26T20:10:06;6.60;99.90
52275;DHT22;38228;50.940;4.024;2023-01-26T20:12:32;6.60;99.90
52275;DHT22;38228;50.940;4.024;2023-01-26T20:14:58;6.80;99.90
52275;DHT22;38228;50.940;4.024;2023-01-26T20:17:23;6.80;99.90
52275;DHT22;38228;50.940;4.024;2023-01-26T20:19:49;6.60;99.90
52275;DHT22;38228;50.940;4.024;2023-01-26T20:22:15;6.60;99.90
52275;DHT22;38228;50.940;4.024;2023-01-26T20:24:40;6.50;99.90
52275;DHT22;38228;50.940;4.024;2023-01-26T20:27:06;6.40;99.90
52275;DHT22;38228;50.940;4.024;2023-01-26T20:29:32;6.40;99.90
52275;DHT22;38228;50.940;4.024;2023-01-26T20:31:59;6.60;99.90
52275;DHT22;38228;50.940;4.024;2023-01-26T20:34:25;6.70;99.90
52275;DHT22;38228;50.940;4.024;2023-01-26T20:36:51;6.80;99.90
52275;DHT22;38228;50.940;4.024;2023-01-26T20:39:20;6.80;99.90
52275;DHT22;38228;50.940;4.024;2023-01-26T20:41:49;6.70;99.90
52275;DHT22;38228;50.940;4.024;2023-01-26T20:44:15;6.70;99.90
52275;DHT22;38228;50.940;4.024;2023-01-26T20:46:41;6.60;99.90
52275;DHT22;38228;50.940;4.024;2023-01-26T20:49:08;6.70;99.90
52275;DHT22;38228;50.940;4.024;2023-01-26T20:51:34;6.60;99.90
52275;DHT22;38228;50.940;4.024;2023-01-26T20:54:00;6.60;99.90
52275;DHT22;38228;50.940;4.024;2023-01-26T20:56:26;6.50;99.90
52275;DHT22;38228;50.940;4.024;2023-01-26T20:58:52;6.50;99.90
52275;DHT22;38228;50.940;4.024;2023-01-26T21:01:18;6.40;99.90
52275;DHT22;38228;50.940;4.024;2023-01-26T21:03:44;6.50;99.90
52275;DHT22;38228;50.940;4.024;2023-01-26T21:06:11;6.60;99.90
52275;DHT22;38228;50.940;4.024;2023-01-26T21:08:37;6.60;99.90
52275;DHT22;38228;50.940;4.024;2023-01-26T21:11:06;6.60;99.90
52275;DHT22;38228;50.940;4.024;2023-01-26T21:13:33;6.50;99.90
52275;DHT22;38228;50.940;4.024;2023-01-26T21:15:59;6.60;99.90
52275;DHT22;38228;50.940;4.024;2023-01-26T21:18:24;6.60;99.90
52275;DHT22;38228;50.940;4.024;2023-01-26T21:20:56;6.60;99.90
52275;DHT22;38228;50.940;4.024;2023-01-26T21:23:22;6.50;99.90
52275;DHT22;38228;50.940;4.024;2023-01-26T21:25:47;6.50;99.90
52275;DHT22;38228;50.940;4.024;2023-01-26T21:28:13;6.60;99.90
52275;DHT22;38228;50.940;4.024;2023-01-26T21:30:39;6.60;99.90
52275;DHT22;38228;50.940;4.024;2023-01-26T21:33:04;6.50;99.90
52275;DHT22;38228;50.940;4.024;2023-01-26T21:35:30;6.40;99.90
52275;DHT22;38228;50.940;4.024;2023-01-26T21:37:55;6.60;99.90
52275;DHT22;38228;50.940;4.024;2023-01-26T21:40:23;6.50;99.90
52275;DHT22;38228;50.940;4.024;2023-01-26T21:42:49;6.50;99.90
52275;DHT22;38228;50.940;4.024;2023-01-26T21:45:14;6.50;99.90
52275;DHT22;38228;50.940;4.024;2023-01-26T21:47:58;6.50;99.90
52275;DHT22;38228;50.940;4.024;2023-01-26T21:50:43;6.50;99.90
52275;DHT22;38228;50.940;4.024;2023-01-26T21:53:27;6.60;99.90
52275;DHT22;38228;50.940;4.024;2023-01-26T21:55:52;6.50;99.90
52275;DHT22;38228;50.940;4.024;2023-01-26T21:58:18;6.60;99.90
52275;DHT22;38228;50.940;4.024;2023-01-26T22:01:06;6.50;99.90
52275;DHT22;38228;50.940;4.024;2023-01-26T22:03:31;6.50;99.90
52275;DHT22;38228;50.940;4.024;2023-01-26T22:05:57;6.60;99.90
52275;DHT22;38228;50.940;4.024;2023-01-26T22:08:23;6.40;99.90
52275;DHT22;38228;50.940;4.024;2023-01-26T22:10:57;6.50;99.90
52275;DHT22;38228;50.940;4.024;2023-01-26T22:13:23;6.30;99.90
52275;DHT22;38228;50.940;4.024;2023-01-26T22:15:48;6.50;99.90
52275;DHT22;38228;50.940;4.024;2023-01-26T22:18:14;6.50;99.90
52275;DHT22;38228;50.940;4.024;2023-01-26T22:20:40;6.30;99.90
52275;DHT22;38228;50.940;4.024;2023-01-26T22:23:05;6.00;99.90
52275;DHT22;38228;50.940;4.024;2023-01-26T22:25:37;6.10;99.90
52275;DHT22;38228;50.940;4.024;2023-01-26T22:28:03;6.20;99.90
52275;DHT22;38228;50.940;4.024;2023-01-26T22:30:29;6.20;99.90
52275;DHT22;38228;50.940;4.024;2023-01-26T22:32:55;6.30;99.90
52275;DHT22;38228;50.940;4.024;2023-01-26T22:35:20;6.40;99.90
52275;DHT22;38228;50.940;4.024;2023-01-26T22:37:46;6.20;99.90
52275;DHT22;38228;50.940;4.024;2023-01-26T22:40:12;6.20;99.90
52275;DHT22;38228;50.940;4.024;2023-01-26T22:42:40;6.20;99.90
52275;DHT22;38228;50.940;4.024;2023-01-26T22:45:06;6.20;99.90
52275;DHT22;38228;50.940;4.024;2023-01-26T22:47:32;6.20;99.90
52275;DHT22;38228;50.940;4.024;2023-01-26T22:49:57;6.30;99.90
52275;DHT22;38228;50.940;4.024;2023-01-26T22:52:23;6.20;99.90
52275;DHT22;38228;50.940;4.024;2023-01-26T22:54:49;6.30;99.90
52275;DHT22;38228;50.940;4.024;2023-01-26T22:57:14;6.10;99.90
52275;DHT22;38228;50.940;4.024;2023-01-26T22:59:40;6.10;99.90
52275;DHT22;38228;50.940;4.024;2023-01-26T23:02:06;6.20;99.90
52275;DHT22;38228;50.940;4.024;2023-01-26T23:04:31;6.10;99.90
52275;DHT22;38228;50.940;4.024;2023-01-26T23:06:57;6.20;99.90
52275;DHT22;38228;50.940;4.024;2023-01-26T23:09:23;6.20;99.90
52275;DHT22;38228;50.940;4.024;2023-01-26T23:11:48;6.40;99.90
52275;DHT22;38228;50.940;4.024;2023-01-26T23:14:14;6.40;99.90
52275;DHT22;38228;50.940;4.024;2023-01-26T23:16:39;6.60;99.90
52275;DHT22;38228;50.940;4.024;2023-01-26T23:19:05;6.50;99.90
52275;DHT22;38228;50.940;4.024;2023-01-26T23:21:30;6.30;99.90
52275;DHT22;38228;50.940;4.024;2023-01-26T23:23:56;6.10;99.90
52275;DHT22;38228;50.940;4.024;2023-01-26T23:26:21;6.00;99.90
52275;DHT22;38228;50.940;4.024;2023-01-26T23:28:47;6.00;99.90
52275;DHT22;38228;50.940;4.024;2023-01-26T23:31:13;6.00;99.90
52275;DHT22;38228;50.940;4.024;2023-01-26T23:33:39;6.00;99.90
52275;DHT22;38228;50.940;4.024;2023-01-26T23:36:05;6.00;99.90
52275;DHT22;38228;50.940;4.024;2023-01-26T23:38:31;6.10;99.90
52275;DHT22;38228;50.940;4.024;2023-01-26T23:40:57;6.10;99.90
52275;DHT22;38228;50.940;4.024;2023-01-26T23:43:24;6.20;99.90
52275;DHT22;38228;50.940;4.024;2023-01-26T23:45:50;6.20;99.90
52275;DHT22;38228;50.940;4.024;2023-01-26T23:48:16;6.20;99.90
52275;DHT22;38228;50.940;4.024;2023-01-26T23:50:42;6.10;99.90
52275;DHT22;38228;50.940;4.024;2023-01-26T23:53:08;6.10;99.90
52275;DHT22;38228;50.940;4.024;2023-01-26T23:55:34;6.10;99.90
52275;DHT22;38228;50.940;4.024;2023-01-26T23:58:00;6.20;99.90
